createdAt,value
2022-09-14T00:01:36.682Z,4.70
2022-09-14T00:04:07.658Z,4.53
2022-09-14T00:06:36.438Z,4.38
2022-09-14T00:09:07.307Z,4.20
2022-09-14T00:11:38.019Z,4.63
2022-09-14T00:14:07.879Z,4.57
2022-09-14T00:16:38.548Z,4.57
2022-09-14T00:19:08.920Z,4.72
2022-09-14T00:21:38.754Z,4.60
2022-09-14T00:24:08.854Z,4.90
2022-09-14T00:26:39.541Z,4.55
2022-09-14T00:29:08.082Z,4.65
2022-09-14T00:31:38.329Z,4.35
2022-09-14T00:34:08.530Z,4.50
2022-09-14T00:36:41.711Z,3.97
2022-09-14T00:39:10.495Z,4.25
2022-09-14T00:41:43.272Z,4.25
2022-09-14T00:44:44.918Z,4.07
2022-09-14T00:47:15.199Z,4.10
2022-09-14T00:49:44.746Z,4.53
2022-09-14T00:52:16.383Z,4.35
2022-09-14T00:54:47.481Z,4.65
2022-09-14T00:57:18.312Z,4.85
2022-09-14T00:59:49.202Z,4.95
2022-09-14T01:02:19.642Z,4.53
2022-09-14T01:04:49.029Z,4.28
2022-09-14T01:07:27.609Z,4.28
2022-09-14T01:10:02.867Z,4.22
2022-09-14T01:12:41.871Z,4.60
2022-09-14T01:15:18.792Z,4.50
2022-09-14T01:17:58.625Z,4.78
2022-09-14T01:20:31.335Z,4.40
2022-09-14T01:23:08.847Z,5.13
2022-09-14T01:26:14.411Z,5.07
2022-09-14T01:28:50.481Z,5.90
2022-09-14T01:31:22.475Z,5.55
2022-09-14T01:33:56.600Z,5.07
2022-09-14T01:36:27.036Z,4.57
2022-09-14T01:38:56.106Z,4.97
2022-09-14T01:41:29.731Z,5.50
2022-09-14T01:44:04.323Z,6.05
2022-09-14T01:46:39.504Z,6.03
2022-09-14T01:49:14.709Z,6.05
2022-09-14T01:51:48.713Z,5.47
2022-09-14T01:54:23.674Z,5.65
2022-09-14T01:56:56.829Z,5.43
2022-09-14T01:59:29.489Z,4.95
2022-09-14T02:02:02.276Z,5.65
2022-09-14T02:04:35.638Z,4.70
2022-09-14T02:07:05.108Z,4.88
2022-09-14T02:09:33.653Z,4.70
2022-09-14T02:12:02.181Z,5.00
2022-09-14T02:14:32.813Z,4.88
2022-09-14T02:17:01.164Z,5.20
2022-09-14T02:19:36.936Z,5.30
2022-09-14T02:22:05.517Z,5.40
2022-09-14T02:24:35.218Z,4.80
2022-09-14T02:27:04.540Z,4.82
2022-09-14T02:29:35.064Z,5.00
2022-09-14T02:32:13.294Z,4.80
2022-09-14T02:34:53.817Z,4.60
2022-09-14T02:37:29.394Z,4.60
2022-09-14T02:40:06.263Z,5.28
2022-09-14T02:42:40.325Z,5.07
2022-09-14T02:45:19.146Z,4.97
2022-09-14T02:47:56.719Z,4.72
2022-09-14T02:50:31.404Z,5.43
2022-09-14T02:53:06.013Z,5.25
2022-09-14T02:55:38.697Z,5.57
2022-09-14T02:58:09.167Z,5.65
2022-09-14T03:00:40.722Z,5.10
2022-09-14T03:03:11.314Z,5.85
2022-09-14T03:05:39.866Z,5.50
2022-09-14T03:08:09.102Z,5.72
2022-09-14T03:10:38.005Z,5.13
2022-09-14T03:13:06.272Z,5.65
2022-09-14T03:15:34.748Z,5.32
2022-09-14T03:18:04.637Z,6.18
2022-09-14T03:20:34.506Z,5.47
2022-09-14T03:23:03.780Z,5.22
2022-09-14T03:25:32.924Z,5.90
2022-09-14T03:28:01.878Z,5.80
2022-09-14T03:30:29.896Z,6.30
2022-09-14T03:32:59.995Z,5.15
2022-09-14T03:35:31.717Z,6.50
2022-09-14T03:38:01.319Z,5.57
2022-09-14T03:40:29.709Z,5.90
2022-09-14T03:42:58.186Z,5.90
2022-09-14T03:45:26.320Z,6.05
2022-09-14T03:47:54.868Z,6.03
2022-09-14T03:50:22.876Z,6.38
2022-09-14T03:52:52.724Z,7.25
2022-09-14T03:55:21.316Z,6.15
2022-09-14T03:57:49.367Z,6.32
2022-09-14T04:00:17.854Z,6.65
2022-09-14T04:02:46.333Z,7.18
2022-09-14T04:05:16.845Z,6.63
2022-09-14T04:07:46.746Z,6.93
2022-09-14T04:10:16.845Z,6.43
2022-09-14T04:12:44.920Z,5.72
2022-09-14T04:15:13.041Z,6.28
2022-09-14T04:17:41.086Z,5.95
2022-09-14T04:20:10.699Z,5.45
2022-09-14T04:22:38.714Z,5.50
2022-09-14T04:25:07.940Z,6.30
2022-09-14T04:27:37.333Z,6.40
2022-09-14T04:30:07.219Z,6.70
2022-09-14T04:32:35.250Z,6.20
2022-09-14T04:35:03.923Z,5.78
2022-09-14T04:37:33.509Z,6.60
2022-09-14T04:40:01.786Z,6.75
2022-09-14T04:42:31.469Z,6.28
2022-09-14T04:45:00.876Z,6.05
2022-09-14T04:47:30.044Z,5.93
2022-09-14T04:49:58.680Z,6.70
2022-09-14T04:52:26.733Z,6.57
2022-09-14T04:54:54.771Z,6.45
2022-09-14T04:57:23.213Z,7.00
2022-09-14T04:59:51.240Z,6.20
2022-09-14T05:02:21.201Z,5.88
2022-09-14T05:04:49.306Z,6.25
2022-09-14T05:07:17.786Z,6.53
2022-09-14T05:09:46.367Z,7.10
2022-09-14T05:12:14.464Z,6.88
2022-09-14T05:14:42.954Z,6.18
2022-09-14T05:17:11.239Z,6.70
2022-09-14T05:19:40.641Z,6.90
2022-09-14T05:22:09.117Z,6.43
2022-09-14T05:24:37.153Z,5.95
2022-09-14T05:27:05.442Z,6.18
2022-09-14T05:29:33.972Z,6.13
2022-09-14T05:32:02.473Z,6.68
2022-09-14T05:34:30.941Z,6.28
2022-09-14T05:37:00.794Z,5.53
2022-09-14T05:39:29.273Z,5.25
2022-09-14T05:41:57.772Z,6.18
2022-09-14T05:44:25.830Z,5.82
2022-09-14T05:46:54.314Z,5.80
2022-09-14T05:49:22.776Z,5.53
2022-09-14T05:51:51.243Z,5.28
2022-09-14T05:54:20.896Z,6.05
2022-09-14T05:56:49.349Z,5.38
2022-09-14T05:59:17.415Z,5.25
2022-09-14T06:01:45.980Z,5.60
2022-09-14T06:04:14.576Z,5.18
2022-09-14T06:06:49.315Z,5.53
2022-09-14T06:09:28.000Z,5.10
2022-09-14T06:11:58.344Z,5.30
2022-09-14T06:14:26.520Z,5.50
2022-09-14T06:16:54.597Z,5.40
2022-09-14T06:19:22.611Z,4.75
2022-09-14T06:21:50.931Z,5.90
2022-09-14T06:24:19.475Z,4.95
2022-09-14T06:26:49.053Z,5.53
2022-09-14T06:29:17.547Z,4.90
2022-09-14T06:31:45.647Z,5.53
2022-09-14T06:34:14.263Z,5.13
2022-09-14T06:36:42.301Z,5.30
2022-09-14T06:39:10.528Z,5.43
2022-09-14T06:41:39.013Z,5.57
2022-09-14T06:44:08.447Z,5.65
2022-09-14T06:46:37.440Z,5.50
2022-09-14T06:49:08.014Z,5.07
2022-09-14T06:51:38.214Z,5.05
2022-09-14T06:54:07.087Z,4.85
2022-09-14T06:56:38.379Z,5.18
2022-09-14T06:59:09.175Z,4.97
2022-09-14T07:01:37.946Z,5.70
2022-09-14T07:04:07.057Z,5.22
2022-09-14T07:06:43.804Z,5.45
2022-09-14T07:09:12.716Z,4.90
2022-09-14T07:11:41.875Z,5.55
2022-09-14T07:14:12.438Z,5.63
2022-09-14T07:16:42.459Z,6.22
2022-09-14T07:19:13.316Z,5.57
2022-09-14T07:21:41.730Z,5.78
2022-09-14T07:24:09.806Z,5.60
2022-09-14T07:26:42.285Z,6.32
2022-09-14T07:29:14.020Z,5.70
2022-09-14T07:31:44.569Z,6.07
2022-09-14T07:34:13.661Z,5.97
2022-09-14T07:36:42.670Z,5.32
2022-09-14T07:39:14.436Z,6.20
2022-09-14T07:41:43.457Z,5.20
2022-09-14T07:44:16.647Z,5.07
2022-09-14T07:46:46.697Z,5.82
2022-09-14T07:49:16.041Z,5.28
2022-09-14T07:51:44.461Z,5.45
2022-09-14T07:54:14.996Z,5.28
2022-09-14T07:56:43.568Z,5.00
2022-09-14T08:02:03.039Z,4.95
2022-09-14T08:04:31.548Z,4.85
2022-09-14T08:06:59.634Z,4.68
2022-09-14T08:09:28.269Z,5.32
2022-09-14T08:11:57.647Z,5.10
2022-09-14T08:14:27.245Z,5.22
2022-09-14T08:16:55.777Z,4.95
2022-09-14T08:19:23.867Z,5.47
2022-09-14T08:21:52.580Z,5.00
2022-09-14T08:24:22.700Z,5.10
2022-09-14T08:26:51.062Z,4.43
2022-09-14T08:29:20.805Z,5.55
2022-09-14T08:31:52.343Z,4.90
2022-09-14T08:34:21.220Z,4.90
2022-09-14T08:36:49.428Z,4.57
2022-09-14T08:39:19.131Z,3.90
2022-09-14T08:41:53.804Z,4.30
2022-09-14T08:44:27.444Z,4.55
2022-09-14T08:47:03.217Z,3.65
2022-09-14T08:49:48.224Z,4.18
2022-09-14T08:52:26.620Z,4.35
2022-09-14T08:54:57.447Z,4.03
2022-09-14T08:57:32.442Z,3.75
2022-09-14T09:00:08.714Z,3.60
2022-09-14T09:03:15.681Z,3.63
2022-09-14T09:05:50.393Z,3.70
2022-09-14T09:08:23.749Z,3.80
2022-09-14T09:10:55.170Z,3.33
2022-09-14T09:13:27.736Z,3.58
2022-09-14T09:15:59.657Z,3.15
2022-09-14T09:18:37.385Z,3.03
2022-09-14T09:21:11.503Z,3.20
2022-09-14T09:23:41.038Z,3.25
2022-09-14T09:26:17.658Z,3.05
2022-09-14T09:28:49.927Z,3.50
2022-09-14T09:31:20.781Z,3.30
2022-09-14T09:33:51.862Z,3.33
2022-09-14T09:36:20.577Z,3.33
2022-09-14T09:38:48.725Z,4.05
2022-09-14T09:41:22.398Z,3.72
2022-09-14T09:44:02.182Z,3.85
2022-09-14T09:46:33.215Z,3.70
2022-09-14T09:49:05.729Z,3.58
2022-09-14T09:51:36.219Z,4.45
2022-09-14T09:54:10.162Z,3.92
2022-09-14T09:56:42.043Z,4.60
2022-09-14T09:59:25.012Z,4.25
2022-09-14T10:01:56.012Z,4.30
2022-09-14T10:04:29.935Z,4.82
2022-09-14T10:06:59.230Z,5.13
2022-09-14T10:09:29.729Z,4.43
2022-09-14T10:12:00.960Z,4.82
2022-09-14T10:14:32.829Z,5.20
2022-09-14T10:17:09.292Z,4.72
2022-09-14T10:19:39.568Z,5.75
2022-09-14T10:22:26.290Z,5.50
2022-09-14T10:24:59.819Z,5.38
2022-09-14T10:27:40.022Z,4.97
2022-09-14T10:30:14.898Z,5.68
2022-09-14T10:32:46.935Z,5.25
2022-09-14T10:35:17.215Z,6.20
2022-09-14T10:38:02.097Z,6.47
2022-09-14T10:40:37.225Z,5.70
2022-09-14T10:43:15.073Z,6.93
2022-09-14T10:45:50.042Z,6.32
2022-09-14T10:49:03.962Z,6.35
2022-09-14T10:51:48.897Z,5.88
2022-09-14T10:54:37.370Z,6.07
2022-09-14T10:57:15.013Z,6.03
2022-09-14T10:59:53.379Z,7.05
2022-09-14T11:02:45.755Z,7.30
2022-09-14T11:05:21.040Z,7.00
2022-09-14T11:08:08.890Z,6.93
2022-09-14T11:10:47.221Z,6.90
2022-09-14T11:13:44.759Z,6.68
2022-09-14T11:16:37.049Z,6.53
2022-09-14T11:19:18.619Z,6.55
2022-09-14T11:21:53.862Z,6.65
2022-09-14T11:24:29.444Z,7.30
2022-09-14T11:27:03.240Z,7.30
2022-09-14T11:29:35.359Z,7.30
2022-09-14T11:32:20.787Z,7.47
2022-09-14T11:34:55.313Z,8.40
2022-09-14T11:37:32.256Z,8.40
2022-09-14T11:40:08.512Z,7.35
2022-09-14T11:42:45.235Z,7.80
2022-09-14T11:45:20.016Z,7.97
2022-09-14T11:47:55.588Z,8.30
2022-09-14T11:50:27.537Z,8.27
2022-09-14T11:53:05.099Z,8.40
2022-09-14T11:55:35.154Z,8.18
2022-09-14T11:58:08.605Z,9.55
2022-09-14T12:01:06.149Z,8.45
2022-09-14T12:04:03.599Z,9.07
2022-09-14T12:06:51.444Z,8.18
2022-09-14T12:09:55.124Z,8.88
2022-09-14T12:12:33.990Z,8.35
2022-09-14T12:15:05.438Z,8.35
2022-09-14T12:17:40.168Z,8.02
2022-09-14T12:20:30.577Z,8.40
2022-09-14T12:23:28.234Z,9.15
2022-09-14T12:26:28.339Z,8.15
2022-09-14T12:29:02.840Z,8.90
2022-09-14T12:31:38.829Z,8.65
2022-09-14T12:34:25.120Z,8.02
2022-09-14T12:37:32.223Z,8.38
2022-09-14T12:40:34.790Z,8.27
2022-09-14T12:43:46.237Z,8.30
2022-09-14T12:46:38.836Z,8.00
2022-09-14T12:49:37.230Z,8.00
2022-09-14T12:52:28.129Z,7.90
2022-09-14T12:55:08.001Z,7.50
2022-09-14T12:57:43.086Z,7.50
2022-09-14T13:00:15.349Z,7.45
2022-09-14T13:03:17.757Z,7.03
2022-09-14T13:05:47.333Z,6.45
2022-09-14T13:08:22.009Z,6.60
2022-09-14T13:10:52.307Z,6.63
2022-09-14T13:13:23.736Z,7.45
2022-09-14T13:15:55.302Z,6.35
2022-09-14T13:18:36.470Z,6.70
2022-09-14T13:21:24.339Z,6.50
2022-09-14T13:23:52.924Z,6.53
2022-09-14T13:26:23.485Z,6.47
2022-09-14T13:28:54.077Z,7.22
2022-09-14T13:31:30.078Z,6.80
2022-09-14T13:34:01.000Z,6.80
2022-09-14T13:36:32.257Z,7.10
2022-09-14T13:39:02.551Z,6.90
2022-09-14T13:41:32.695Z,7.15
2022-09-14T13:44:01.856Z,7.10
2022-09-14T13:46:30.226Z,6.63
2022-09-14T13:49:00.423Z,7.38
2022-09-14T13:51:31.465Z,6.80
2022-09-14T13:54:17.089Z,7.45
2022-09-14T13:56:45.545Z,7.15
2022-09-14T13:59:19.810Z,6.60
2022-09-14T14:02:00.286Z,6.60
2022-09-14T14:04:35.422Z,7.65
2022-09-14T14:07:08.804Z,7.53
2022-09-14T14:09:43.703Z,7.30
2022-09-14T14:12:14.608Z,7.68
2022-09-14T14:14:43.128Z,7.53
2022-09-14T14:17:42.834Z,7.95
2022-09-14T14:20:32.589Z,8.23
2022-09-14T14:23:05.080Z,8.70
2022-09-14T14:25:42.055Z,8.30
2022-09-14T14:28:18.343Z,6.28
2022-09-14T14:30:46.806Z,5.10
2022-09-14T14:33:19.142Z,5.30
2022-09-14T14:35:49.420Z,4.63
2022-09-14T14:38:19.616Z,4.20
2022-09-14T14:40:49.323Z,3.88
2022-09-14T14:43:20.687Z,4.47
2022-09-14T14:45:49.834Z,3.78
2022-09-14T14:48:18.805Z,3.30
2022-09-14T14:50:49.121Z,3.45
2022-09-14T14:53:17.267Z,3.15
2022-09-14T14:55:45.768Z,3.47
2022-09-14T14:58:17.632Z,3.10
2022-09-14T15:00:47.769Z,3.00
2022-09-14T15:03:16.507Z,2.95
2022-09-14T15:05:46.634Z,3.13
2022-09-14T15:08:19.861Z,2.83
2022-09-14T15:10:49.842Z,2.83
2022-09-14T15:13:18.087Z,2.63
2022-09-14T15:15:46.214Z,2.85
2022-09-14T15:18:14.740Z,2.85
2022-09-14T15:20:42.794Z,2.90
2022-09-14T15:23:14.762Z,2.58
2022-09-14T15:25:44.214Z,2.20
2022-09-14T15:28:12.708Z,1.80
2022-09-14T15:30:41.750Z,2.10
2022-09-14T15:33:09.878Z,2.15
2022-09-14T15:35:39.051Z,2.00
2022-09-14T15:38:07.605Z,1.90
2022-09-14T15:40:35.730Z,1.75
2022-09-14T15:43:05.637Z,1.98
2022-09-14T15:45:34.227Z,2.05
2022-09-14T15:48:03.183Z,1.73
2022-09-14T15:50:31.220Z,1.95
2022-09-14T15:53:02.525Z,1.70
2022-09-14T15:55:30.963Z,1.65
2022-09-14T15:57:59.092Z,1.70
2022-09-14T16:00:28.495Z,1.73
2022-09-14T16:02:56.549Z,1.73
2022-09-14T16:05:25.086Z,1.48
2022-09-14T16:07:54.686Z,1.50
2022-09-14T16:10:23.040Z,1.30
2022-09-14T16:12:51.643Z,1.40
2022-09-14T16:15:19.694Z,1.40
2022-09-14T16:17:53.102Z,1.25
2022-09-14T16:20:22.044Z,1.08
2022-09-14T16:22:51.391Z,1.30
2022-09-14T16:25:19.784Z,1.20
2022-09-14T16:27:49.350Z,1.13
2022-09-14T16:30:17.480Z,1.40
2022-09-14T16:32:45.767Z,1.58
2022-09-14T16:35:15.491Z,1.50
2022-09-14T16:37:43.958Z,2.10
2022-09-14T16:40:13.941Z,2.30
2022-09-14T16:42:42.514Z,2.22
2022-09-14T16:45:11.512Z,1.92
2022-09-14T16:47:40.217Z,1.52
2022-09-14T16:50:08.541Z,1.70
2022-09-14T16:52:37.968Z,1.60
2022-09-14T16:55:07.557Z,1.52
2022-09-14T16:57:35.584Z,1.33
2022-09-14T17:00:04.813Z,1.25
2022-09-14T17:02:33.381Z,1.25
2022-09-14T17:05:04.336Z,1.10
2022-09-14T17:07:32.433Z,1.38
2022-09-14T17:10:01.974Z,1.40
2022-09-14T17:12:30.428Z,1.67
2022-09-14T17:14:59.415Z,3.67
2022-09-14T17:17:27.462Z,1.98
2022-09-14T17:19:55.654Z,1.38
2022-09-14T17:22:24.007Z,1.20
2022-09-14T17:24:52.105Z,1.10
2022-09-14T17:27:22.410Z,1.08
2022-09-14T17:29:50.892Z,1.40
2022-09-14T17:32:19.386Z,1.30
2022-09-14T17:34:47.402Z,1.30
2022-09-14T17:37:15.632Z,1.30
2022-09-14T17:39:44.224Z,1.25
2022-09-14T17:42:12.411Z,1.50
2022-09-14T17:44:41.915Z,1.40
2022-09-14T17:47:10.456Z,1.40
2022-09-14T17:49:38.621Z,1.30
2022-09-14T17:52:07.294Z,1.45
2022-09-14T17:54:35.450Z,1.77
2022-09-14T17:57:03.977Z,1.75
2022-09-14T17:59:32.006Z,1.45
2022-09-14T18:02:01.975Z,1.50
2022-09-14T18:04:30.054Z,1.58
2022-09-14T18:06:58.483Z,1.70
2022-09-14T18:09:26.617Z,1.35
2022-09-14T18:11:57.125Z,1.25
2022-09-14T18:14:25.794Z,1.50
2022-09-14T18:16:53.895Z,1.20
2022-09-14T18:19:24.022Z,1.50
2022-09-14T18:21:53.022Z,1.33
2022-09-14T18:24:22.224Z,1.60
2022-09-14T18:26:50.396Z,1.60
2022-09-14T18:29:21.583Z,1.52
2022-09-14T18:31:49.775Z,1.38
2022-09-14T18:34:18.489Z,1.70
2022-09-14T18:36:48.127Z,2.67
2022-09-14T18:39:16.795Z,2.40
2022-09-14T18:41:45.118Z,1.88
2022-09-14T18:44:13.176Z,1.60
2022-09-14T18:46:41.723Z,1.50
2022-09-14T18:49:10.593Z,1.77
2022-09-14T18:51:39.105Z,1.80
2022-09-14T18:54:09.626Z,2.10
2022-09-14T18:56:38.341Z,2.60
2022-09-14T18:59:08.905Z,2.60
2022-09-14T19:01:37.982Z,3.20
2022-09-14T19:04:08.566Z,2.30
2022-09-14T19:06:38.039Z,2.08
2022-09-14T19:09:09.305Z,2.47
2022-09-14T19:11:37.555Z,2.58
2022-09-14T19:14:10.593Z,2.20
2022-09-14T19:16:40.981Z,2.70
2022-09-14T19:19:11.786Z,1.77
2022-09-14T19:21:40.368Z,1.80
2022-09-14T19:24:14.190Z,2.00
2022-09-14T19:26:45.565Z,1.80
2022-09-14T19:29:14.869Z,1.75
2022-09-14T19:31:43.516Z,1.90
2022-09-14T19:34:12.660Z,1.80
2022-09-14T19:36:41.189Z,1.73
2022-09-14T19:39:10.771Z,2.00
2022-09-14T19:41:40.438Z,1.83
2022-09-14T19:44:09.365Z,1.77
2022-09-14T19:46:40.167Z,1.50
2022-09-14T19:49:09.176Z,1.70
2022-09-14T19:51:37.230Z,1.88
2022-09-14T19:54:06.067Z,1.48
2022-09-14T19:56:35.972Z,2.10
2022-09-14T19:59:06.204Z,1.70
2022-09-14T20:01:37.423Z,1.38
2022-09-14T20:04:08.591Z,2.78
2022-09-14T20:06:40.251Z,2.35
2022-09-14T20:09:10.262Z,2.33
2022-09-14T20:11:42.199Z,2.67
2022-09-14T20:14:14.900Z,2.25
2022-09-14T20:16:45.335Z,1.58
2022-09-14T20:19:15.142Z,1.90
2022-09-14T20:21:43.946Z,2.00
2022-09-14T20:24:16.539Z,2.00
2022-09-14T20:26:47.328Z,1.70
2022-09-14T20:29:16.349Z,2.15
2022-09-14T20:31:45.474Z,2.70
2022-09-14T20:34:15.671Z,2.00
2022-09-14T20:36:45.699Z,1.80
2022-09-14T20:39:14.289Z,2.15
2022-09-14T20:41:42.673Z,1.98
2022-09-14T20:44:13.787Z,1.85
2022-09-14T20:46:43.543Z,2.33
2022-09-14T20:49:14.184Z,1.70
2022-09-14T20:51:42.935Z,1.50
2022-09-14T20:54:13.415Z,1.67
2022-09-14T20:56:42.020Z,1.55
2022-09-14T20:59:13.125Z,1.70
2022-09-14T21:01:42.986Z,1.45
2022-09-14T21:04:13.783Z,1.70
2022-09-14T21:06:44.361Z,1.85
2022-09-14T21:09:13.865Z,1.70
2022-09-14T21:11:42.145Z,1.67
2022-09-14T21:14:11.588Z,1.52
2022-09-14T21:16:43.002Z,1.90
2022-09-14T21:19:13.688Z,1.70
2022-09-14T21:21:42.101Z,1.63
2022-09-14T21:24:13.826Z,1.98
2022-09-14T21:26:43.074Z,1.80
2022-09-14T21:29:16.163Z,1.75
2022-09-14T21:31:45.612Z,2.00
2022-09-14T21:34:14.798Z,1.75
2022-09-14T21:36:44.275Z,1.90
2022-09-14T21:39:14.972Z,2.17
2022-09-14T21:41:44.665Z,2.95
2022-09-14T21:44:14.788Z,2.70
2022-09-14T21:46:43.769Z,1.88
2022-09-14T21:49:15.104Z,2.30
2022-09-14T21:51:44.793Z,2.10
2022-09-14T21:54:14.095Z,2.28
2022-09-14T21:56:44.726Z,1.90
2022-09-14T21:59:15.676Z,1.80
2022-09-14T22:01:44.053Z,1.90
2022-09-14T22:04:15.212Z,2.17
2022-09-14T22:06:45.179Z,1.90
2022-09-14T22:09:14.536Z,1.88
2022-09-14T22:11:42.829Z,1.95
2022-09-14T22:14:15.561Z,1.70
2022-09-14T22:16:43.941Z,2.10
2022-09-14T22:19:16.883Z,1.73
2022-09-14T22:21:45.900Z,1.80
2022-09-14T22:24:17.329Z,2.17
2022-09-14T22:26:46.847Z,2.03
2022-09-14T22:29:17.640Z,2.25
2022-09-14T22:31:47.477Z,1.92
2022-09-14T22:34:17.094Z,1.70
2022-09-14T22:36:45.291Z,2.03
2022-09-14T22:39:14.450Z,1.80
2022-09-14T22:41:43.290Z,1.52
2022-09-14T22:44:13.065Z,2.13
2022-09-14T22:46:43.657Z,1.98
2022-09-14T22:49:11.873Z,1.60
2022-09-14T22:51:40.493Z,1.95
2022-09-14T22:54:09.387Z,1.70
2022-09-14T22:56:39.346Z,1.95
2022-09-14T22:59:09.543Z,1.92
2022-09-14T23:01:39.947Z,1.90
2022-09-14T23:04:12.196Z,1.65
2022-09-14T23:06:42.500Z,1.80
2022-09-14T23:09:14.689Z,1.58
2022-09-14T23:11:44.973Z,1.63
2022-09-14T23:14:13.751Z,1.33
2022-09-14T23:16:45.533Z,1.65
2022-09-14T23:19:17.330Z,1.80
2022-09-14T23:21:46.155Z,1.50
2022-09-14T23:24:14.871Z,1.60
2022-09-14T23:26:43.938Z,1.65
2022-09-14T23:29:16.392Z,1.80
2022-09-14T23:31:45.254Z,1.70
2022-09-14T23:34:15.156Z,1.52
2022-09-14T23:36:43.279Z,1.50
2022-09-14T23:39:11.360Z,1.60
2022-09-14T23:41:40.853Z,1.58
2022-09-14T23:44:09.782Z,1.50
2022-09-14T23:46:38.293Z,1.58
2022-09-14T23:49:07.025Z,1.40
2022-09-14T23:51:37.886Z,1.45
2022-09-14T23:54:07.034Z,1.50
2022-09-14T23:56:35.147Z,1.70
2022-09-14T23:59:03.237Z,1.50
